Time;durP1;ratioP1;P1;durP2;ratioP2;P2;SDS_P1;SDS_P2;PMS_P1;PMS_P2;Temp;Humidity;BMP_temperature;BMP_pressure;BME280_temperature;BME280_humidity;BME280_pressure;Samples;Min_cycle;Max_cycle;Signal;HPM_P1;HPM_P2
2022/05/02 00:01:59;;;;;;;30.30;19.65;;;;;;;8.18;nan;100664.81;4975137;28;20490;-69
2022/05/02 00:04:43;;;;;;;24.58;18.02;;;;;;;8.21;nan;100661.94;4974404;28;20045;-69
2022/05/02 00:07:28;;;;;;;25.52;18.83;;;;;;;8.19;nan;100653.25;4975297;28;20057;-69
2022/05/02 00:10:12;;;;;;;26.45;19.65;;;;;;;8.17;nan;100657.81;4974017;28;20045;-69
2022/05/02 00:12:56;;;;;;;25.13;19.00;;;;;;;8.12;nan;100649.34;4973955;28;20140;-69
2022/05/02 00:15:40;;;;;;;28.55;20.30;;;;;;;8.07;nan;100660.34;4974474;28;20097;-69
2022/05/02 00:18:24;;;;;;;25.80;19.10;;;;;;;7.96;nan;100651.53;4974294;28;20057;-69
2022/05/02 00:21:08;;;;;;;28.00;21.00;;;;;;;7.82;nan;100646.44;4973952;28;20137;-69
2022/05/02 00:23:52;;;;;;;31.70;20.15;;;;;;;7.84;nan;100648.00;4974074;28;20116;-69
2022/05/02 00:26:36;;;;;;;32.50;21.40;;;;;;;7.82;nan;100649.09;4975159;28;20113;-69
2022/05/02 00:29:20;;;;;;;32.63;22.63;;;;;;;7.85;nan;100648.84;4974051;28;20101;-69
2022/05/02 00:32:04;;;;;;;30.35;21.92;;;;;;;7.83;nan;100646.31;4973713;28;20045;-69
2022/05/02 00:34:48;;;;;;;27.23;20.17;;;;;;;7.83;nan;100645.47;4973979;28;20518;-69
2022/05/02 00:37:33;;;;;;;33.45;20.55;;;;;;;7.77;nan;100641.47;4973875;28;20077;-69
2022/05/02 00:40:18;;;;;;;31.10;21.48;;;;;;;7.76;nan;100649.56;4960230;28;20057;-69
2022/05/02 00:43:02;;;;;;;33.15;23.35;;;;;;;7.63;nan;100641.66;4974612;28;20050;-69
2022/05/02 00:45:46;;;;;;;31.33;23.42;;;;;;;7.63;nan;100641.66;4973839;28;20114;-69
2022/05/02 00:48:30;;;;;;;35.33;24.33;;;;;;;7.65;nan;100644.22;4973559;28;20086;-69
2022/05/02 00:51:14;;;;;;;32.60;23.10;;;;;;;7.66;nan;100644.13;4973556;28;20073;-69
2022/05/02 00:53:58;;;;;;;36.97;26.00;;;;;;;7.61;nan;100640.09;4974732;28;20054;-69
2022/05/02 00:56:42;;;;;;;36.55;24.52;;;;;;;7.66;nan;100644.13;4973519;28;20050;-69
2022/05/02 00:59:27;;;;;;;38.97;25.27;;;;;;;7.65;nan;100646.88;4973435;28;20053;-69
2022/05/02 01:02:13;;;;;;;37.75;23.98;;;;;;;7.60;nan;100639.25;4973328;28;20525;-69
2022/05/02 01:04:57;;;;;;;35.28;23.00;;;;;;;7.66;nan;100640.59;4973484;28;20069;-69
2022/05/02 01:07:42;;;;;;;32.55;23.23;;;;;;;7.61;nan;100638.28;4973317;28;20471;-69
2022/05/02 01:10:26;;;;;;;30.83;21.70;;;;;;;7.59;nan;100639.38;4973591;28;20045;-69
2022/05/02 01:13:13;;;;;;;33.03;22.88;;;;;;;7.57;nan;100637.81;4973228;28;20130;-69
2022/05/02 01:15:57;;;;;;;30.38;21.63;;;;;;;7.51;nan;100640.91;4973555;28;20053;-69
2022/05/02 01:18:50;;;;;;;33.95;23.00;;;;;;;7.48;nan;100634.03;4973237;28;20049;-69
2022/05/02 01:21:34;;;;;;;29.48;21.20;;;;;;;7.49;nan;100643.69;4973438;28;20073;-69
2022/05/02 01:24:18;;;;;;;33.92;23.20;;;;;;;7.51;nan;100639.09;4973172;28;20105;-69
2022/05/02 01:27:02;;;;;;;34.20;24.67;;;;;;;7.51;nan;100643.56;4974389;28;20057;-69
2022/05/02 01:29:46;;;;;;;36.13;22.42;;;;;;;7.46;nan;100633.31;4974466;28;20057;-69
2022/05/02 01:32:30;;;;;;;34.78;22.90;;;;;;;7.42;nan;100637.16;4973449;28;20560;-69
2022/05/02 01:35:14;;;;;;;34.85;23.00;;;;;;;7.44;nan;100635.22;4973374;28;20113;-69
2022/05/02 01:37:58;;;;;;;31.58;22.02;;;;;;;7.48;nan;100628.72;4973110;28;20049;-69
2022/05/02 01:40:42;;;;;;;30.33;20.27;;;;;;;7.54;nan;100630.94;4975726;28;20097;-69
2022/05/02 01:43:27;;;;;;;31.08;21.13;;;;;;;7.52;nan;100627.56;4976965;28;20548;-69
2022/05/02 01:46:12;;;;;;;31.05;20.95;;;;;;;7.52;nan;100619.59;4963456;28;20136;-69
2022/05/02 01:48:57;;;;;;;34.72;22.85;;;;;;;7.44;nan;100616.66;4963257;28;20049;-69
2022/05/02 01:54:29;;;;;;;31.88;21.02;;;;;;;7.45;nan;100612.19;4976588;28;20550;-70
2022/05/02 01:57:13;;;;;;;28.98;21.10;;;;;;;7.47;nan;100610.28;4963101;28;20061;-70
2022/05/02 01:59:56;;;;;;;31.55;21.40;;;;;;;7.46;nan;100611.22;4949307;28;20117;-70
2022/05/02 02:02:40;;;;;;;29.25;21.52;;;;;;;7.46;nan;100611.22;4962835;28;20049;-70
2022/05/02 02:08:29;;;;;;;30.55;22.00;;;;;;;7.64;nan;100610.69;4976563;28;20053;-70
2022/05/02 02:11:14;;;;;;;30.00;21.55;;;;;;;7.62;nan;100615.28;4962910;28;20081;-70
2022/05/02 02:13:58;;;;;;;34.13;24.20;;;;;;;7.63;nan;100617.78;4977375;28;20045;-70
2022/05/02 02:16:43;;;;;;;31.02;23.45;;;;;;;7.74;nan;100606.38;4962487;28;20045;-70
2022/05/02 02:19:26;;;;;;;38.53;24.70;;;;;;;7.83;nan;100603.00;4977091;28;20053;-70
2022/05/02 02:22:16;;;;;;;30.58;23.17;;;;;;;7.85;nan;100606.38;4976291;28;20466;-70
2022/05/02 02:25:00;;;;;;;30.70;20.90;;;;;;;7.81;nan;100600.47;4962275;28;20054;-69
2022/05/02 02:27:44;;;;;;;36.08;22.38;;;;;;;7.71;nan;100598.63;4976870;28;20102;-70
2022/05/02 02:30:29;;;;;;;29.38;19.95;;;;;;;7.67;nan;100613.09;4977175;28;20057;-70
2022/05/02 02:33:13;;;;;;;35.20;24.77;;;;;;;7.78;nan;100599.84;4976779;28;20049;-70
2022/05/02 02:35:59;;;;;;;35.75;23.55;;;;;;;7.80;nan;100600.56;4962500;28;20406;-70
2022/05/02 02:38:42;;;;;;;43.85;28.48;;;;;;;7.87;nan;100600.00;4977305;28;20053;-70
2022/05/02 02:41:26;;;;;;;38.45;26.55;;;;;;;7.86;nan;100600.94;4976858;28;20053;-70
2022/05/02 02:44:10;;;;;;;37.65;26.50;;;;;;;7.82;nan;100602.16;4975934;28;20069;-70
2022/05/02 02:46:54;;;;;;;41.92;29.38;;;;;;;7.79;nan;100606.84;4962184;28;20089;-70
2022/05/02 02:49:38;;;;;;;42.60;28.08;;;;;;;7.73;nan;100602.03;4976078;28;20046;-70
2022/05/02 02:52:22;;;;;;;36.92;25.38;;;;;;;7.73;nan;100596.72;4975298;28;20101;-70
2022/05/02 02:55:07;;;;;;;39.03;25.35;;;;;;;7.75;nan;100586.81;4976771;28;20505;-70
2022/05/02 02:57:50;;;;;;;42.85;26.58;;;;;;;7.71;nan;100593.31;4962025;28;20045;-70
2022/05/02 03:00:34;;;;;;;35.00;24.63;;;;;;;7.71;nan;100588.00;4975359;28;20101;-70
2022/05/02 03:03:18;;;;;;;34.25;24.30;;;;;;;7.70;nan;100591.63;4976545;28;20045;-70
2022/05/02 03:06:03;;;;;;;29.08;21.77;;;;;;;7.68;nan;100580.28;4975396;28;20066;-70
2022/05/02 03:08:48;;;;;;;33.97;23.42;;;;;;;7.70;nan;100581.00;4961794;28;20113;-70
2022/05/02 03:11:31;;;;;;;35.08;23.33;;;;;;;7.71;nan;100572.09;4975488;28;20052;-70
2022/05/02 03:14:16;;;;;;;34.03;23.42;;;;;;;7.71;nan;100572.09;4975372;28;20065;-70
2022/05/02 03:16:59;;;;;;;32.17;22.70;;;;;;;7.69;nan;100572.22;4975315;28;20092;-70
2022/05/02 03:19:43;;;;;;;;;;;;;;;7.64;nan;100573.53;4975410;28;20093;-70
2022/05/02 03:22:27;;;;;;;34.80;24.20;;;;;;;7.69;nan;100579.31;4961507;28;19920;-70
2022/05/02 03:25:11;;;;;;;35.38;22.80;;;;;;;7.64;nan;100576.19;4975191;28;20118;-70
2022/05/02 03:27:55;;;;;;;32.60;22.27;;;;;;;7.64;nan;100576.19;4975111;28;20085;-69
2022/05/02 03:30:39;;;;;;;;;;;;;;;7.62;nan;100572.81;4975470;28;20506;-70
2022/05/02 03:33:23;;;;;;;31.25;22.00;;;;;;;7.59;nan;100573.03;4961356;28;20381;-70
2022/05/02 03:36:07;;;;;;;29.92;20.63;;;;;;;7.57;nan;100567.00;4974960;28;20046;-70
2022/05/02 03:38:51;;;;;;;32.42;21.63;;;;;;;7.59;nan;100567.72;4974964;28;20093;-70
2022/05/02 03:41:35;;;;;;;37.38;23.65;;;;;;;7.49;nan;100572.06;4975606;28;20089;-70
2022/05/02 03:44:19;;;;;;;36.38;24.50;;;;;;;7.55;nan;100584.84;4975781;28;20065;-70
2022/05/02 03:47:03;;;;;;;;;;;;;;;7.56;nan;100578.59;4974838;28;20101;-70
2022/05/02 03:49:47;;;;;;;37.03;23.50;;;;;;;7.56;nan;100573.28;4961090;28;19921;-70
2022/05/02 03:52:31;;;;;;;29.27;21.40;;;;;;;7.62;nan;100578.13;4974148;28;20046;-70
2022/05/02 03:55:15;;;;;;;35.90;22.92;;;;;;;7.65;nan;100583.19;4961186;28;20451;-70
2022/05/02 03:57:59;;;;;;;34.25;22.75;;;;;;;7.64;nan;100582.34;4975555;28;20109;-69
2022/05/02 04:00:43;;;;;;;34.42;22.05;;;;;;;7.69;nan;100585.50;4960594;28;20130;-70
2022/05/02 04:03:26;;;;;;;34.25;22.33;;;;;;;7.73;nan;100583.44;4973897;28;20106;-70
2022/05/02 04:06:10;;;;;;;30.95;22.00;;;;;;;7.77;nan;100583.09;4975555;28;20046;-70
2022/05/02 04:08:54;;;;;;;34.22;23.35;;;;;;;7.78;nan;100578.63;4974090;28;20057;-70
2022/05/02 04:11:38;;;;;;;34.58;23.83;;;;;;;7.78;nan;100578.63;4975158;28;20057;-70
2022/05/02 04:14:22;;;;;;;;;;;;;;;7.79;nan;100580.31;4975691;28;20049;-70
2022/05/02 04:17:06;;;;;;;31.77;21.58;;;;;;;7.78;nan;100579.47;4974243;28;19969;-70
2022/05/02 04:19:50;;;;;;;28.90;21.08;;;;;;;7.78;nan;100574.16;4960532;28;20136;-70
2022/05/02 04:22:35;;;;;;;30.42;20.20;;;;;;;7.79;nan;100575.00;4973835;28;20061;-70
2022/05/02 04:25:19;;;;;;;32.78;21.55;;;;;;;7.81;nan;100575.72;4960444;28;20053;-70
2022/05/02 04:28:03;;;;;;;35.88;21.27;;;;;;;7.83;nan;100571.97;4974072;28;20414;-70
2022/05/02 04:30:48;;;;;;;34.85;21.90;;;;;;;7.85;nan;100579.84;4974727;28;20188;-70
2022/05/02 04:33:32;;;;;;;31.20;20.83;;;;;;;7.93;nan;100582.75;4974968;28;20049;-70
2022/05/02 04:36:16;;;;;;;33.08;20.58;;;;;;;7.94;nan;100582.59;4974970;28;20169;-70
2022/05/02 04:38:59;;;;;;;30.58;20.65;;;;;;;7.94;nan;100584.44;4960536;28;20062;-70
2022/05/02 04:41:43;;;;;;;30.10;20.92;;;;;;;7.97;nan;100584.19;4973848;28;20053;-69
2022/05/02 04:44:27;;;;;;;30.65;19.17;;;;;;;7.98;nan;100591.19;4973849;28;20101;-70
2022/05/02 04:47:11;;;;;;;34.47;20.73;;;;;;;8.03;nan;100581.06;4960124;28;20057;-70
2022/05/02 04:49:55;;;;;;;33.53;21.48;;;;;;;8.04;nan;100588.06;4959915;28;20177;-70
2022/05/02 04:52:39;;;;;;;28.48;19.20;;;;;;;8.09;nan;100589.38;4973432;28;20054;-70
2022/05/02 04:55:23;;;;;;;29.00;20.35;;;;;;;8.13;nan;100584.69;4974751;28;20506;-70
2022/05/02 04:58:07;;;;;;;30.30;21.35;;;;;;;8.16;nan;100584.44;4959755;28;20525;-69
2022/05/02 05:00:52;;;;;;;32.53;20.23;;;;;;;8.22;nan;100576.84;4960056;28;20060;-70
2022/05/02 05:03:36;;;;;;;32.03;21.45;;;;;;;8.27;nan;100582.63;4960048;28;20053;-70
2022/05/02 05:06:20;;;;;;;30.02;20.58;;;;;;;8.36;nan;100575.75;4973337;28;20107;-70
2022/05/02 05:09:04;;;;;;;28.60;20.10;;;;;;;8.48;nan;100575.63;4974609;28;20494;-70
2022/05/02 05:12:23;;;;;;;30.60;20.42;;;;;;;8.54;nan;100580.44;4973533;28;20057;-70
2022/05/02 05:18:48;;;;;;;25.98;19.55;;;;;;;8.73;nan;100569.13;4966495;28;20147;-69
2022/05/02 05:21:39;;;;;;;28.08;19.77;;;;;;;8.87;nan;100579.50;4963788;28;20402;-70
2022/05/02 05:24:44;;;;;;;27.88;19.52;;;;;;;8.99;nan;100575.81;4978351;28;20054;-69
2022/05/02 05:27:43;;;;;;;27.17;18.33;;;;;;;9.12;nan;100571.16;4978208;28;20049;-70
2022/05/02 05:30:28;;;;;;;27.75;17.85;;;;;;;9.25;nan;100571.81;4978215;28;20182;-70
2022/05/02 05:33:39;;;;;;;24.17;18.13;;;;;;;9.44;nan;100571.97;4949654;28;20050;-70
2022/05/02 05:36:32;;;;;;;23.73;17.88;;;;;;;9.54;nan;100567.56;4949912;28;20517;-70
2022/05/02 05:39:29;;;;;;;26.27;17.85;;;;;;;9.63;nan;100572.09;4978116;28;20173;-70
2022/05/02 05:42:17;;;;;;;22.70;16.98;;;;;;;9.77;nan;100571.78;4977699;28;20050;-70
2022/05/02 05:45:14;;;;;;;22.77;17.05;;;;;;;9.90;nan;100564.41;4977717;28;20097;-70
2022/05/02 05:48:36;;;;;;;22.17;16.33;;;;;;;10.08;nan;100571.66;4963273;28;20053;-70
2022/05/02 05:51:23;;;;;;;26.42;16.25;;;;;;;10.23;nan;100561.50;4977893;28;20053;-70
2022/05/02 05:54:26;;;;;;;20.38;15.40;;;;;;;10.36;nan;100558.44;4977457;28;20054;-70
2022/05/02 05:57:26;;;;;;;23.30;15.90;;;;;;;10.48;nan;100560.03;4977627;28;20480;-70
2022/05/02 06:00:13;;;;;;;21.85;15.85;;;;;;;10.63;nan;100556.00;4949517;28;20050;-70
2022/05/02 06:03:15;;;;;;;20.63;14.80;;;;;;;10.72;nan;100555.16;4977462;28;20513;-70
2022/05/02 06:06:00;;;;;;;21.48;14.48;;;;;;;10.92;nan;100553.34;4977296;28;20041;-70
2022/05/02 06:08:46;;;;;;;21.48;15.18;;;;;;;11.02;nan;100551.53;4949130;28;20427;-70
2022/05/02 06:11:33;;;;;;;25.80;16.05;;;;;;;11.13;nan;100554.91;4962884;28;20089;-70
2022/05/02 06:14:17;;;;;;;19.98;13.57;;;;;;;11.31;nan;100550.56;4962501;28;20101;-70
2022/05/02 06:20:05;;;;;;;21.20;13.60;;;;;;;11.57;nan;100543.66;4965425;28;20587;-70
2022/05/02 06:22:49;;;;;;;19.08;13.73;;;;;;;11.64;nan;100547.44;4962382;28;20105;-70
2022/05/02 06:25:33;;;;;;;18.50;13.55;;;;;;;11.72;nan;100544.03;4976850;28;20415;-70
2022/05/02 06:28:19;;;;;;;16.30;12.23;;;;;;;11.85;nan;100550.75;4962599;28;20473;-70
2022/05/02 06:31:04;;;;;;;19.52;13.00;;;;;;;11.98;nan;100540.56;4962442;28;20058;-70
2022/05/02 06:33:50;;;;;;;18.50;12.90;;;;;;;12.11;nan;100541.09;4962491;28;20057;-70
2022/05/02 06:36:50;;;;;;;21.08;12.65;;;;;;;12.26;nan;100546.78;4962214;28;20519;-70
2022/05/02 06:39:51;;;;;;;18.08;12.13;;;;;;;12.37;nan;100544.75;4977075;28;20045;-70
2022/05/02 06:42:38;;;;;;;18.67;13.20;;;;;;;12.44;nan;100545.00;4975835;28;20562;-70
2022/05/02 06:45:28;;;;;;;18.92;13.63;;;;;;;12.37;nan;100550.09;4977218;28;20061;-70
2022/05/02 06:48:19;;;;;;;16.75;14.35;;;;;;;12.60;nan;100556.72;4962221;28;20142;-70
2022/05/02 06:51:06;;;;;;;20.70;15.00;;;;;;;12.67;nan;100547.09;4976612;28;20046;-71
2022/05/02 06:54:10;;;;;;;21.42;16.00;;;;;;;12.87;nan;100546.81;4961854;28;20053;-70
2022/05/02 06:57:08;;;;;;;24.55;16.15;;;;;;;12.91;nan;100550.88;4962282;28;20463;-71
2022/05/02 07:00:02;;;;;;;20.63;15.13;;;;;;;12.92;nan;100549.88;4976700;28;20109;-71
2022/05/02 07:03:25;;;;;;;20.80;16.52;;;;;;;13.05;nan;100558.41;4962084;28;20137;-70
2022/05/02 07:06:27;;;;;;;23.35;15.65;;;;;;;13.01;nan;100556.19;4976408;28;20117;-70
2022/05/02 07:09:22;;;;;;;23.33;16.75;;;;;;;13.03;nan;100556.84;4961842;28;20098;-70
2022/05/02 07:12:15;;;;;;;20.63;15.20;;;;;;;13.14;nan;100554.00;4961679;28;20045;-70
2022/05/02 07:15:03;;;;;;;21.55;16.60;;;;;;;13.21;nan;100558.56;4961679;28;20046;-70
2022/05/02 07:17:58;;;;;;;18.73;15.48;;;;;;;13.25;nan;100553.75;4975165;28;20414;-70
2022/05/02 07:21:04;;;;;;;;;;;;;;;13.32;nan;100554.78;4975839;28;20054;-70
2022/05/02 07:23:56;;;;;;;18.83;13.98;;;;;;;13.37;nan;100552.50;4961225;28;19936;-70
2022/05/02 07:26:43;;;;;;;21.23;13.95;;;;;;;13.43;nan;100557.22;4974957;28;20182;-70
2022/05/02 07:29:27;;;;;;;15.07;12.80;;;;;;;13.50;nan;100558.28;4961600;28;20407;-70
2022/05/02 07:32:11;;;;;;;20.02;14.07;;;;;;;13.58;nan;100555.69;4961215;28;20050;-70
2022/05/02 07:34:56;;;;;;;18.48;13.85;;;;;;;13.72;nan;100552.41;4961233;28;20057;-70
2022/05/02 07:37:42;;;;;;;18.75;13.95;;;;;;;13.79;nan;100548.94;4960514;28;20049;-70
2022/05/02 07:40:26;;;;;;;17.77;13.40;;;;;;;13.80;nan;100560.53;4961140;28;20505;-70
2022/05/02 07:43:09;;;;;;;14.95;12.75;;;;;;;13.86;nan;100560.72;4974874;28;20057;-70
2022/05/02 07:45:53;;;;;;;16.85;13.07;;;;;;;13.99;nan;100555.78;4960782;28;20100;-71
2022/05/02 07:48:41;;;;;;;18.58;13.80;;;;;;;14.05;nan;100554.28;4974740;28;20141;-71
2022/05/02 07:51:26;;;;;;;18.50;13.88;;;;;;;14.07;nan;100553.13;4975324;28;20054;-70
2022/05/02 07:54:15;;;;;;;18.30;14.13;;;;;;;14.16;nan;100552.19;5020982;22;20144;-68
2022/05/02 07:57:02;;;;;;;18.48;13.63;;;;;;;14.16;nan;100548.69;5014900;28;20049;-69
2022/05/02 07:59:49;;;;;;;16.55;14.07;;;;;;;14.20;nan;100548.19;4999850;28;20045;-69
2022/05/02 08:02:34;;;;;;;20.33;14.77;;;;;;;14.17;nan;100553.06;4999575;28;20044;-69
2022/05/02 08:05:20;;;;;;;20.17;14.43;;;;;;;14.19;nan;100551.06;5014734;28;20108;-69
2022/05/02 08:08:13;;;;;;;17.35;14.07;;;;;;;14.28;nan;100552.78;5014601;28;20104;-69
2022/05/02 08:11:19;;;;;;;20.08;15.32;;;;;;;14.41;nan;100555.84;4999766;28;20092;-69
2022/05/02 08:14:07;;;;;;;15.40;13.02;;;;;;;14.59;nan;100554.72;4999691;28;20091;-69
2022/05/02 08:17:02;;;;;;;15.32;13.27;;;;;;;14.77;nan;100552.78;4999823;28;20056;-69
2022/05/02 08:20:07;;;;;;;15.25;12.55;;;;;;;14.92;nan;100550.31;4999181;28;20057;-69
2022/05/02 08:30:22;;;;;;;19.88;12.40;;;;;;;15.97;nan;100553.66;5002084;28;20045;-69
2022/05/02 08:33:08;;;;;;;15.57;11.73;;;;;;;16.31;nan;100553.41;4999351;28;20425;-69
2022/05/02 08:36:00;;;;;;;15.20;11.35;;;;;;;16.51;nan;100560.06;4985286;28;20045;-69
2022/05/02 08:39:06;;;;;;;16.85;12.38;;;;;;;16.55;nan;100547.94;5013731;28;20103;-69
2022/05/02 08:42:10;;;;;;;22.05;12.18;;;;;;;16.64;nan;100550.44;4999518;28;20053;-69
2022/05/02 08:45:14;;;;;;;15.63;10.98;;;;;;;16.79;nan;100559.41;4999349;28;20056;-69
2022/05/02 08:48:26;;;;;;;16.00;11.68;;;;;;;16.78;nan;100552.34;4985117;28;20103;-69
2022/05/02 08:51:25;;;;;;;21.10;12.35;;;;;;;16.86;nan;100556.84;4998810;28;20501;-69
2022/05/02 08:54:50;;;;;;;13.93;11.35;;;;;;;17.02;nan;100557.63;5013642;28;20099;-69
2022/05/02 08:58:18;;;;;;;15.95;10.98;;;;;;;17.27;nan;100548.34;4998194;28;20413;-69
2022/05/02 09:01:35;;;;;;;13.82;11.30;;;;;;;17.59;nan;100552.66;4952963;29;20428;-69
2022/05/02 09:04:41;;;;;;;14.63;11.35;;;;;;;17.49;nan;100550.19;4953250;29;20435;-69
2022/05/02 09:07:31;;;;;;;14.85;12.13;;;;;;;17.78;nan;100555.66;5013673;28;20567;-69
2022/05/02 09:10:21;;;;;;;11.35;9.77;;;;;;;17.66;nan;100548.19;4998485;28;20088;-69
2022/05/02 09:13:47;;;;;;;14.90;11.15;;;;;;;17.84;nan;100549.56;4998462;28;20092;-69
2022/05/02 09:16:59;;;;;;;12.80;10.18;;;;;;;18.04;nan;100537.19;5013857;28;20053;-69
2022/05/02 09:19:55;;;;;;;18.65;10.70;;;;;;;18.16;nan;100533.00;5013252;28;20053;-69
2022/05/02 09:23:07;;;;;;;13.70;10.65;;;;;;;18.37;nan;100537.66;5013334;28;20409;-69
2022/05/02 09:26:14;;;;;;;16.88;10.63;;;;;;;18.68;nan;100537.25;4998224;28;20048;-69
2022/05/02 09:29:07;;;;;;;13.32;9.82;;;;;;;18.72;nan;100535.00;5013672;28;20049;-69
2022/05/02 09:31:58;;;;;;;14.00;11.38;;;;;;;19.06;nan;100518.97;5013429;28;20100;-69
2022/05/02 09:34:51;;;;;;;12.45;11.15;;;;;;;19.12;nan;100518.19;4998594;28;20056;-69
2022/05/02 09:37:40;;;;;;;13.40;10.57;;;;;;;19.40;nan;100524.53;4984952;28;20063;-69
2022/05/02 09:40:35;;;;;;;12.90;10.95;;;;;;;19.40;nan;100513.72;4998280;28;20048;-69
2022/05/02 09:49:57;;;;;;;13.48;10.50;;;;;;;20.08;nan;100516.53;5001101;28;20049;-69
2022/05/02 09:52:47;;;;;;;;;;;;;;;19.99;nan;100525.84;4998539;28;20402;-69
2022/05/02 09:59:09;;;;;;;13.38;11.90;;;;;;;20.73;nan;100516.88;5000954;28;20564;-69
2022/05/02 10:02:05;;;;;;;16.65;11.88;;;;;;;21.91;nan;100514.13;4986662;28;20525;-69
2022/05/02 10:05:08;;;;;;;12.98;11.05;;;;;;;22.38;nan;100500.22;4987909;28;20052;-69
2022/05/02 10:08:21;;;;;;;14.00;10.93;;;;;;;24.19;nan;100495.41;5016597;28;20049;-69
2022/05/02 10:11:33;;;;;;;17.30;11.43;;;;;;;25.28;nan;100499.66;5003479;28;20053;-69
2022/05/02 10:14:34;;;;;;;14.82;11.05;;;;;;;25.53;nan;100492.13;5016354;28;20044;-69
2022/05/02 10:17:34;;;;;;;13.57;11.20;;;;;;;25.81;nan;100489.53;5001799;28;20040;-70
2022/05/02 10:20:19;;;;;;;17.95;11.32;;;;;;;27.08;nan;100485.47;5001371;28;20057;-69
2022/05/02 10:23:15;;;;;;;12.18;10.93;;;;;;;28.22;nan;100475.63;5001383;28;20099;-70
2022/05/02 10:26:14;;;;;;;15.98;11.75;;;;;;;27.80;nan;100487.31;5016276;28;20477;-70
2022/05/02 10:29:17;;;;;;;15.13;12.18;;;;;;;28.63;nan;100488.78;5016273;28;20049;-70
2022/05/02 10:32:08;;;;;;;14.88;12.07;;;;;;;28.68;nan;100485.28;4987368;28;20103;-70
2022/05/02 10:34:54;;;;;;;11.82;10.55;;;;;;;28.78;nan;100489.00;5001603;28;20057;-70
2022/05/02 10:37:42;;;;;;;13.88;10.77;;;;;;;29.71;nan;100477.56;5000867;28;20649;-70
2022/05/02 10:40:40;;;;;;;10.75;9.65;;;;;;;30.70;nan;100475.44;5001081;28;20107;-70
2022/05/02 10:43:25;;;;;;;13.85;10.75;;;;;;;30.76;nan;100471.59;4987339;28;20120;-70
2022/05/02 10:46:11;;;;;;;12.10;10.77;;;;;;;29.03;nan;100467.31;4987326;28;20056;-70
2022/05/02 10:49:25;;;;;;;12.15;10.65;;;;;;;29.61;nan;100464.59;5001057;28;20056;-70
2022/05/02 10:52:22;;;;;;;12.68;11.23;;;;;;;29.63;nan;100458.81;5000859;28;20410;-70
2022/05/02 10:55:12;;;;;;;14.98;13.48;;;;;;;31.53;nan;100453.00;5000985;28;20410;-70
2022/05/02 10:58:05;;;;;;;13.32;11.10;;;;;;;31.71;nan;100448.88;5015513;28;20107;-70
2022/05/02 11:00:54;;;;;;;12.65;11.13;;;;;;;31.06;nan;100452.38;5000384;28;20053;-70
2022/05/02 11:04:08;;;;;;;13.00;11.27;;;;;;;31.77;nan;100447.78;5015608;28;20596;-70
2022/05/02 11:07:12;;;;;;;11.15;9.98;;;;;;;31.32;nan;100439.50;5000706;28;20060;-70
2022/05/02 11:10:07;;;;;;;12.95;10.85;;;;;;;30.26;nan;100430.13;5015434;28;20045;-70
2022/05/02 11:13:06;;;;;;;11.23;9.88;;;;;;;32.51;nan;100432.97;4999539;28;20103;-69
2022/05/02 11:16:19;;;;;;;11.23;9.50;;;;;;;32.65;nan;100422.09;5015354;28;20406;-70
2022/05/02 11:22:28;;;;;;;13.63;11.02;;;;;;;32.85;nan;100422.00;5015118;28;20137;-70
2022/05/02 11:25:22;;;;;;;12.35;11.00;;;;;;;31.84;nan;100426.25;5014927;28;20413;-70
2022/05/02 11:28:26;;;;;;;10.55;9.55;;;;;;;32.81;nan;100418.19;5015128;28;20099;-70
2022/05/02 11:31:33;;;;;;;12.60;9.85;;;;;;;33.24;nan;100419.00;5015313;28;20116;-70
2022/05/02 11:34:47;;;;;;;14.75;10.13;;;;;;;32.28;nan;100410.72;5000085;28;20048;-70
2022/05/02 11:37:38;;;;;;;10.23;9.23;;;;;;;33.45;nan;100401.13;5014890;28;20536;-70
2022/05/02 11:40:30;;;;;;;13.18;9.35;;;;;;;35.14;nan;100400.16;5000211;28;20052;-70
2022/05/02 11:43:20;;;;;;;13.00;10.43;;;;;;;34.16;nan;100399.28;5000075;28;20053;-70
2022/05/02 11:46:22;;;;;;;11.15;9.13;;;;;;;35.31;nan;100403.22;5014678;28;20068;-70
2022/05/02 11:49:14;;;;;;;9.80;8.88;;;;;;;34.24;nan;100397.81;5000234;28;20076;-70
2022/05/02 11:52:01;;;;;;;10.88;8.40;;;;;;;33.95;nan;100388.78;4999982;28;20048;-70
2022/05/02 11:54:47;;;;;;;11.38;8.18;;;;;;;33.51;nan;100393.59;5014615;28;20156;-70
2022/05/02 11:57:44;;;;;;;10.75;9.52;;;;;;;33.75;nan;100392.56;4986312;28;20548;-70
2022/05/02 12:00:32;;;;;;;10.25;9.25;;;;;;;34.36;nan;100385.22;4999595;28;20040;-70
2022/05/02 12:03:18;;;;;;;9.50;8.60;;;;;;;33.61;nan;100379.69;5014771;28;20059;-70
2022/05/02 12:06:04;;;;;;;10.50;7.97;;;;;;;35.22;nan;100382.88;4999979;28;20465;-70
2022/05/02 12:08:49;;;;;;;10.45;9.35;;;;;;;34.99;nan;100383.75;4999746;28;20104;-70
2022/05/02 12:11:51;;;;;;;8.90;8.00;;;;;;;37.09;nan;100391.53;4999801;28;20107;-70
2022/05/02 12:14:35;;;;;;;11.75;10.18;;;;;;;35.07;nan;100385.84;4999786;28;20518;-70
2022/05/02 12:17:20;;;;;;;10.70;9.52;;;;;;;33.69;nan;100382.66;5013967;28;20508;-70
2022/05/02 12:20:21;;;;;;;10.38;8.70;;;;;;;33.48;nan;100383.13;5014013;28;20135;-70
2022/05/02 12:23:20;;;;;;;10.35;9.35;;;;;;;34.78;nan;100371.34;4999091;28;20056;-70
2022/05/02 12:26:12;;;;;;;15.38;8.70;;;;;;;34.73;nan;100368.69;4999376;28;20409;-70
2022/05/02 12:29:00;;;;;;;7.80;6.95;;;;;;;35.54;nan;100370.94;4999272;28;20072;-70
2022/05/02 12:31:52;;;;;;;8.32;7.47;;;;;;;36.46;nan;100368.53;4999466;28;20136;-70
2022/05/02 12:34:44;;;;;;;;;;;;;;;36.27;nan;100359.50;4999903;28;20458;-70
2022/05/02 12:37:33;;;;;;;9.07;8.20;;;;;;;35.30;nan;100354.44;4999476;28;19924;-70
2022/05/02 12:40:18;;;;;;;9.25;6.72;;;;;;;35.89;nan;100354.47;4998970;28;20069;-69
2022/05/02 12:43:12;;;;;;;9.52;7.20;;;;;;;34.90;nan;100346.78;4999120;28;20084;-70
2022/05/02 12:45:56;;;;;;;7.70;6.60;;;;;;;35.70;nan;100347.38;4999227;28;20410;-70
2022/05/02 12:48:41;;;;;;;7.05;6.07;;;;;;;36.87;nan;100347.03;4999703;28;20556;-70
2022/05/02 12:51:28;;;;;;;7.47;6.65;;;;;;;37.40;nan;100336.00;4999134;28;20056;-70
2022/05/02 12:54:14;;;;;;;8.85;7.05;;;;;;;34.95;nan;100338.41;4998510;28;20077;-70
2022/05/02 13:03:10;;;;;;;5.95;5.40;;;;;;;35.27;nan;100329.31;5001225;28;20516;-70
2022/05/02 13:06:05;;;;;;;8.82;6.03;;;;;;;34.18;nan;100327.84;4998568;28;20100;-70
2022/05/02 13:08:50;;;;;;;6.38;5.78;;;;;;;32.69;nan;100334.88;4984751;28;20044;-70
2022/05/02 13:11:37;;;;;;;8.60;5.30;;;;;;;33.62;nan;100318.56;4998941;28;20049;-70
2022/05/02 13:14:24;;;;;;;6.28;5.70;;;;;;;32.69;nan;100330.16;5013347;28;20045;-69
2022/05/02 13:17:11;;;;;;;6.25;5.65;;;;;;;32.71;nan;100316.06;4998666;28;20052;-70
2022/05/02 13:19:55;;;;;;;6.60;6.00;;;;;;;32.48;nan;100305.75;4998742;28;20103;-69
2022/05/02 13:23:00;;;;;;;6.80;5.45;;;;;;;32.99;nan;100310.59;4998635;28;20049;-70
2022/05/02 13:26:08;;;;;;;7.32;5.85;;;;;;;32.48;nan;100312.06;4998444;28;20409;-69
2022/05/02 13:29:05;;;;;;;9.48;6.38;;;;;;;33.16;nan;100308.25;5013289;28;20095;-70
2022/05/02 13:32:04;;;;;;;7.45;6.75;;;;;;;32.93;nan;100302.66;4998680;28;20126;-70
2022/05/02 13:35:03;;;;;;;6.43;5.70;;;;;;;33.53;nan;100294.66;4998328;28;20149;-70
2022/05/02 13:38:05;;;;;;;6.78;5.80;;;;;;;33.52;nan;100291.03;5002365;28;20103;-70
2022/05/02 13:41:03;;;;;;;5.68;5.18;;;;;;;33.93;nan;100296.94;5002054;28;20165;-70
2022/05/02 13:44:27;;;;;;;6.60;5.85;;;;;;;33.29;nan;100291.03;5002099;28;20051;-70
2022/05/02 13:47:12;;;;;;;;;;;;;;;31.97;nan;100294.13;5017991;28;20141;-70
2022/05/02 13:50:10;;;;;;;7.82;6.30;;;;;;;33.50;nan;100285.00;4988214;28;20387;-69
2022/05/02 13:53:19;;;;;;;6.18;5.30;;;;;;;33.15;nan;100284.50;5038343;22;20073;-71
2022/05/02 13:56:14;;;;;;;6.53;5.93;;;;;;;32.05;nan;100287.22;5016593;28;20429;-71
2022/05/02 13:59:04;;;;;;;6.88;6.18;;;;;;;30.48;nan;100295.09;5002412;28;20104;-71
2022/05/02 14:02:06;;;;;;;7.00;6.03;;;;;;;30.16;nan;100280.72;5016693;28;20180;-71
2022/05/02 14:04:54;;;;;;;7.57;6.13;;;;;;;29.48;nan;100275.44;5016401;28;20064;-71